createdAt,value
2022-12-15T00:02:17.079Z,13.56
2022-12-15T00:05:02.329Z,13.57
2022-12-15T00:07:47.051Z,13.57
2022-12-15T00:10:32.331Z,13.56
2022-12-15T00:13:17.671Z,13.56
2022-12-15T00:16:05.529Z,13.56
2022-12-15T00:18:50.692Z,13.53
2022-12-15T00:21:35.997Z,13.53
2022-12-15T00:24:20.792Z,13.53
2022-12-15T00:27:06.185Z,13.54
2022-12-15T00:29:51.019Z,13.54
2022-12-15T00:32:36.293Z,13.54
2022-12-15T00:35:21.492Z,13.55
2022-12-15T00:38:06.418Z,13.55
2022-12-15T00:40:32.971Z,13.56
2022-12-15T00:42:59.554Z,13.56
2022-12-15T00:45:46.071Z,13.57
2022-12-15T00:48:12.629Z,13.56
2022-12-15T00:50:59.511Z,13.56
2022-12-15T00:53:44.559Z,13.57
2022-12-15T00:56:29.821Z,13.56
2022-12-15T00:59:15.225Z,13.56
2022-12-15T01:02:00.795Z,13.54
2022-12-15T01:04:46.546Z,13.54
2022-12-15T01:07:31.867Z,13.52
2022-12-15T01:10:17.203Z,13.52
2022-12-15T01:13:02.489Z,13.51
2022-12-15T01:15:47.991Z,13.48
2022-12-15T01:18:33.151Z,13.48
2022-12-15T01:21:05.177Z,13.48
2022-12-15T01:23:32.829Z,13.47
2022-12-15T01:25:59.769Z,13.46
2022-12-15T01:28:26.358Z,13.48
2022-12-15T01:30:53.070Z,13.48
2022-12-15T01:33:20.067Z,13.48
2022-12-15T01:35:58.329Z,13.49
2022-12-15T01:38:25.626Z,13.49
2022-12-15T01:40:54.078Z,13.52
2022-12-15T01:43:25.939Z,13.51
2022-12-15T01:46:02.404Z,13.52
2022-12-15T01:48:47.374Z,13.52
2022-12-15T01:51:18.664Z,13.53
2022-12-15T01:53:50.170Z,13.52
2022-12-15T01:56:17.229Z,13.51
2022-12-15T01:58:46.011Z,13.51
2022-12-15T02:01:12.863Z,13.51
2022-12-15T02:03:39.822Z,13.49
2022-12-15T02:06:06.923Z,13.48
2022-12-15T02:08:33.747Z,13.49
2022-12-15T02:11:15.373Z,13.49
2022-12-15T02:13:52.627Z,13.48
2022-12-15T02:16:23.161Z,13.48
2022-12-15T02:19:18.733Z,13.47
2022-12-15T02:22:09.053Z,13.46
2022-12-15T02:24:52.767Z,13.46
2022-12-15T02:27:45.225Z,13.47
2022-12-15T02:30:38.072Z,13.48
2022-12-15T02:33:14.029Z,13.48
2022-12-15T02:35:48.172Z,13.48
2022-12-15T02:38:14.698Z,13.48
2022-12-15T02:40:41.264Z,13.48
2022-12-15T02:43:08.488Z,13.50
2022-12-15T02:45:52.213Z,13.50
2022-12-15T02:48:40.315Z,13.51
2022-12-15T02:51:06.918Z,13.50
2022-12-15T02:54:30.585Z,13.50
2022-12-15T02:57:32.431Z,13.49
2022-12-15T03:00:07.742Z,13.49
2022-12-15T03:02:35.562Z,13.48
2022-12-15T03:05:02.471Z,13.46
2022-12-15T03:07:29.231Z,13.45
2022-12-15T03:09:56.567Z,13.44
2022-12-15T03:12:23.432Z,13.44
2022-12-15T03:14:49.969Z,13.42
2022-12-15T03:17:17.009Z,13.41
2022-12-15T03:19:43.564Z,13.42
2022-12-15T03:22:10.120Z,13.42
2022-12-15T03:24:36.723Z,13.43
2022-12-15T03:27:04.148Z,13.42
2022-12-15T03:29:30.781Z,13.41
2022-12-15T03:31:57.417Z,13.44
2022-12-15T03:34:23.973Z,13.44
2022-12-15T03:36:50.524Z,13.45
2022-12-15T03:39:17.061Z,13.45
2022-12-15T03:41:43.657Z,13.45
2022-12-15T03:44:10.253Z,13.45
2022-12-15T03:46:36.810Z,13.45
2022-12-15T03:49:03.806Z,13.44
2022-12-15T03:51:30.477Z,13.45
2022-12-15T03:53:58.849Z,13.44
2022-12-15T03:56:25.420Z,13.44
2022-12-15T03:58:51.984Z,13.43
2022-12-15T04:01:21.616Z,13.43
2022-12-15T04:03:48.386Z,13.43
2022-12-15T04:06:15.016Z,13.41
2022-12-15T04:08:41.560Z,13.40
2022-12-15T04:11:08.132Z,13.40
2022-12-15T04:13:34.898Z,13.38
2022-12-15T04:16:02.934Z,13.37
2022-12-15T04:18:29.875Z,13.41
2022-12-15T04:20:57.628Z,13.40
2022-12-15T04:23:24.167Z,13.40
2022-12-15T04:26:09.118Z,13.40
2022-12-15T04:28:54.397Z,13.41
2022-12-15T04:31:44.144Z,13.42
2022-12-15T04:34:36.044Z,13.43
2022-12-15T04:37:21.543Z,13.42
2022-12-15T04:40:09.270Z,13.44
2022-12-15T04:42:55.421Z,13.44
2022-12-15T04:45:42.991Z,13.42
2022-12-15T04:48:28.125Z,13.44
2022-12-15T04:51:13.503Z,13.42
2022-12-15T04:53:58.835Z,13.41
2022-12-15T04:56:43.719Z,13.41
2022-12-15T04:59:28.634Z,13.41
2022-12-15T05:02:13.462Z,13.40
2022-12-15T05:04:58.781Z,13.39
2022-12-15T05:07:44.661Z,13.38
2022-12-15T05:10:29.948Z,13.36
2022-12-15T05:13:22.911Z,13.36
2022-12-15T05:16:08.391Z,13.36
2022-12-15T05:18:53.859Z,13.36
2022-12-15T05:21:38.705Z,13.36
2022-12-15T05:24:23.955Z,13.36
2022-12-15T05:27:08.793Z,13.37
2022-12-15T05:29:54.109Z,13.37
2022-12-15T05:32:20.684Z,13.38
2022-12-15T05:34:47.217Z,13.39
2022-12-15T05:37:13.766Z,13.39
2022-12-15T05:39:40.323Z,13.40
2022-12-15T05:42:06.896Z,13.40
2022-12-15T05:44:33.516Z,13.40
2022-12-15T05:47:00.075Z,13.40
2022-12-15T05:49:26.587Z,13.40
2022-12-15T05:51:53.158Z,13.38
2022-12-15T05:54:20.120Z,13.39
2022-12-15T05:56:47.148Z,13.37
2022-12-15T05:59:17.480Z,13.37
2022-12-15T06:01:44.165Z,13.36
2022-12-15T06:04:12.726Z,13.34
2022-12-15T06:06:39.894Z,13.34
2022-12-15T06:09:08.027Z,13.33
2022-12-15T06:11:34.676Z,13.31
2022-12-15T06:14:01.229Z,13.31
2022-12-15T06:16:28.201Z,13.31
2022-12-15T06:18:58.553Z,13.33
2022-12-15T06:21:27.551Z,13.32
2022-12-15T06:23:55.660Z,13.34
2022-12-15T06:26:30.702Z,13.33
2022-12-15T06:28:58.828Z,13.35
2022-12-15T06:31:26.114Z,13.36
2022-12-15T06:33:59.200Z,13.36
2022-12-15T06:36:28.739Z,13.38
2022-12-15T06:38:58.798Z,13.37
2022-12-15T06:41:25.380Z,13.39
2022-12-15T06:43:58.291Z,13.39
2022-12-15T06:46:26.115Z,13.38
2022-12-15T06:48:53.216Z,13.36
2022-12-15T06:51:20.400Z,13.37
2022-12-15T06:53:54.090Z,13.36
2022-12-15T06:56:25.692Z,13.37
2022-12-15T06:58:55.835Z,13.37
2022-12-15T07:01:23.674Z,13.35
2022-12-15T07:03:51.026Z,13.35
2022-12-15T07:06:18.083Z,13.35
2022-12-15T07:08:49.177Z,13.32
2022-12-15T07:11:16.274Z,13.34
2022-12-15T07:13:42.816Z,13.34
2022-12-15T07:16:10.227Z,13.34
2022-12-15T07:18:36.870Z,13.34
2022-12-15T07:21:05.029Z,13.35
2022-12-15T07:23:53.607Z,13.38
2022-12-15T07:26:18.768Z,13.38
2022-12-15T07:28:45.299Z,13.39
2022-12-15T07:31:12.075Z,13.38
2022-12-15T07:33:38.806Z,13.40
2022-12-15T07:36:06.458Z,13.39
2022-12-15T07:38:33.029Z,13.40
2022-12-15T07:41:04.192Z,13.39
2022-12-15T07:43:31.728Z,13.38
2022-12-15T07:45:58.999Z,13.35
2022-12-15T07:48:27.293Z,13.34
2022-12-15T07:51:02.893Z,13.34
2022-12-15T07:53:34.893Z,13.32
2022-12-15T07:56:07.983Z,13.31
2022-12-15T07:58:35.453Z,13.31
2022-12-15T08:01:04.130Z,13.32
2022-12-15T08:03:31.208Z,13.31
2022-12-15T08:06:03.871Z,13.31
2022-12-15T08:08:31.297Z,13.31
2022-12-15T08:10:58.180Z,13.33
2022-12-15T08:14:00.307Z,13.34
2022-12-15T08:16:11.783Z,13.36
2022-12-15T08:18:39.571Z,13.38
2022-12-15T08:21:08.287Z,13.39
2022-12-15T08:23:35.539Z,13.42
2022-12-15T08:26:07.168Z,13.44
2022-12-15T08:28:38.348Z,13.44
2022-12-15T08:31:07.036Z,13.46
2022-12-15T08:33:34.222Z,13.48
2022-12-15T08:36:03.112Z,13.49
2022-12-15T08:38:31.101Z,13.50
2022-12-15T08:40:58.099Z,13.50
2022-12-15T08:43:24.632Z,13.50
2022-12-15T08:45:51.227Z,13.50
2022-12-15T08:48:17.813Z,13.48
2022-12-15T08:50:45.763Z,13.48
2022-12-15T08:56:07.228Z,13.45
2022-12-15T08:58:33.985Z,13.44
2022-12-15T09:01:23.963Z,13.43
2022-12-15T09:03:55.040Z,13.42
2022-12-15T09:06:27.010Z,13.41
2022-12-15T09:08:56.568Z,13.42
2022-12-15T09:11:24.439Z,13.42
2022-12-15T09:13:51.009Z,13.41
2022-12-15T09:16:18.310Z,13.41
2022-12-15T09:18:48.215Z,13.43
2022-12-15T09:21:15.685Z,13.42
2022-12-15T09:23:43.102Z,13.44
2022-12-15T09:26:14.436Z,13.45
2022-12-15T09:28:42.781Z,13.48
2022-12-15T09:31:12.376Z,13.48
2022-12-15T09:33:40.078Z,13.49
2022-12-15T09:36:07.732Z,13.49
2022-12-15T09:38:34.952Z,13.50
2022-12-15T09:41:13.610Z,13.49
2022-12-15T09:43:47.683Z,13.49
2022-12-15T09:46:43.720Z,13.50
2022-12-15T09:49:24.213Z,13.49
2022-12-15T09:51:56.144Z,13.47
2022-12-15T09:54:23.603Z,13.47
2022-12-15T09:56:55.059Z,13.46
2022-12-15T09:59:32.123Z,13.45
2022-12-15T10:02:18.561Z,13.44
2022-12-15T10:05:14.320Z,13.45
2022-12-15T10:07:46.242Z,13.43
2022-12-15T10:10:21.578Z,13.44
2022-12-15T10:13:00.118Z,13.46
2022-12-15T10:15:33.698Z,13.47
2022-12-15T10:18:11.833Z,13.48
2022-12-15T10:20:38.402Z,13.48
2022-12-15T10:23:13.669Z,13.48
2022-12-15T10:25:51.362Z,13.48
2022-12-15T10:28:30.056Z,13.49
2022-12-15T10:31:16.613Z,13.49
2022-12-15T10:33:48.707Z,13.51
2022-12-15T10:36:16.920Z,13.52
2022-12-15T10:38:47.475Z,13.53
2022-12-15T10:41:19.594Z,13.52
2022-12-15T10:43:50.876Z,13.52
2022-12-15T10:46:22.543Z,13.52
2022-12-15T10:48:51.558Z,13.51
2022-12-15T10:51:18.131Z,13.52
2022-12-15T10:54:04.562Z,13.54
2022-12-15T10:56:34.120Z,13.56
2022-12-15T10:59:33.516Z,13.59
2022-12-15T11:02:33.248Z,13.56
2022-12-15T11:05:02.873Z,13.56
2022-12-15T11:07:42.343Z,13.54
2022-12-15T11:10:52.753Z,13.53
2022-12-15T11:13:20.821Z,13.53
2022-12-15T11:15:51.116Z,13.53
2022-12-15T11:18:38.683Z,13.53
2022-12-15T11:21:17.252Z,13.53
2022-12-15T11:23:59.018Z,13.54
2022-12-15T11:26:36.466Z,13.57
2022-12-15T11:29:29.983Z,13.57
2022-12-15T11:32:01.432Z,13.57
2022-12-15T11:34:37.666Z,13.56
2022-12-15T11:37:13.384Z,13.55
2022-12-15T11:40:15.402Z,13.57
2022-12-15T11:42:41.990Z,13.58
2022-12-15T11:45:47.253Z,13.57
2022-12-15T11:48:28.088Z,13.57
2022-12-15T11:51:31.984Z,13.55
2022-12-15T11:54:14.759Z,13.53
2022-12-15T11:57:39.866Z,13.53
2022-12-15T12:00:13.276Z,13.52
2022-12-15T12:03:13.236Z,13.52
2022-12-15T12:06:00.028Z,13.52
2022-12-15T12:08:46.754Z,13.51
2022-12-15T12:11:29.365Z,13.50
2022-12-15T12:17:12.522Z,13.52
2022-12-15T12:22:41.736Z,13.54
2022-12-15T12:25:24.897Z,13.52
2022-12-15T12:27:53.003Z,13.53
2022-12-15T12:30:29.809Z,13.52
2022-12-15T12:33:02.639Z,13.53
2022-12-15T12:35:53.263Z,13.53
2022-12-15T12:38:30.078Z,13.54
2022-12-15T12:41:02.866Z,13.55
2022-12-15T12:43:35.258Z,13.56
2022-12-15T12:46:27.508Z,13.56
2022-12-15T12:48:56.008Z,13.57
2022-12-15T12:51:40.778Z,13.57
2022-12-15T12:54:35.978Z,13.56
2022-12-15T12:57:40.627Z,13.55
2022-12-15T13:00:24.902Z,13.54
2022-12-15T13:03:18.476Z,13.53
2022-12-15T13:05:46.832Z,13.54
2022-12-15T13:08:25.760Z,13.54
2022-12-15T13:10:53.305Z,13.54
2022-12-15T13:13:32.197Z,13.54
2022-12-15T13:16:19.343Z,13.54
2022-12-15T13:18:54.909Z,13.54
2022-12-15T13:21:48.521Z,13.57
2022-12-15T13:24:24.540Z,13.58
2022-12-15T13:26:51.138Z,13.59
2022-12-15T13:29:21.014Z,13.60
2022-12-15T13:31:49.665Z,13.60
2022-12-15T13:34:20.261Z,13.62
2022-12-15T13:36:54.510Z,13.62
2022-12-15T13:39:27.488Z,13.62
2022-12-15T13:44:55.341Z,13.62
2022-12-15T13:47:28.680Z,13.62
2022-12-15T13:50:17.920Z,13.61
2022-12-15T13:53:19.036Z,13.60
2022-12-15T13:55:52.446Z,13.61
2022-12-15T13:58:19.518Z,13.58
2022-12-15T14:00:56.703Z,13.60
2022-12-15T14:03:24.088Z,13.59
2022-12-15T14:05:58.825Z,13.57
2022-12-15T14:08:27.636Z,13.59
2022-12-15T14:11:00.044Z,13.58
2022-12-15T14:13:30.018Z,13.59
2022-12-15T14:16:04.255Z,13.58
2022-12-15T14:18:35.951Z,13.58
2022-12-15T14:21:07.211Z,13.56
2022-12-15T14:23:48.653Z,13.57
2022-12-15T14:26:30.917Z,13.58
2022-12-15T14:29:03.071Z,13.57
2022-12-15T14:31:30.145Z,13.58
2022-12-15T14:34:11.637Z,13.58
2022-12-15T14:36:39.960Z,13.57
2022-12-15T14:39:15.535Z,13.59
2022-12-15T14:41:45.610Z,13.60
2022-12-15T14:44:36.490Z,13.60
2022-12-15T14:47:17.764Z,13.60
2022-12-15T14:49:45.530Z,13.59
2022-12-15T14:52:35.989Z,13.61
2022-12-15T14:55:22.051Z,13.61
2022-12-15T14:57:48.824Z,13.60
2022-12-15T15:00:27.544Z,13.59
2022-12-15T15:03:07.047Z,13.52
2022-12-15T15:03:15.799Z,13.52
2022-12-15T15:05:59.268Z,13.58
2022-12-15T15:08:31.802Z,13.58
2022-12-15T15:11:23.345Z,13.57
2022-12-15T15:13:53.833Z,13.57
2022-12-15T15:16:23.020Z,13.56
2022-12-15T15:18:51.387Z,13.55
2022-12-15T15:21:29.726Z,13.54
2022-12-15T15:24:07.962Z,13.53
2022-12-15T15:26:34.624Z,13.53
2022-12-15T15:29:01.412Z,13.53
2022-12-15T15:31:41.504Z,13.54
2022-12-15T15:34:09.801Z,13.53
2022-12-15T15:36:39.584Z,13.53
2022-12-15T15:39:20.143Z,13.53
2022-12-15T15:41:46.717Z,13.54
2022-12-15T15:44:15.461Z,13.53
2022-12-15T15:46:52.068Z,13.54
2022-12-15T15:49:20.842Z,13.55
2022-12-15T15:51:47.504Z,13.53
2022-12-15T15:54:18.385Z,13.53
2022-12-15T15:56:44.927Z,13.54
2022-12-15T15:59:13.500Z,13.55
2022-12-15T16:01:40.642Z,13.53
2022-12-15T16:04:07.332Z,13.56
2022-12-15T16:06:34.377Z,13.56
2022-12-15T16:09:01.073Z,13.54
2022-12-15T16:11:30.372Z,13.53
2022-12-15T16:13:57.677Z,13.54
2022-12-15T16:16:27.653Z,13.53
2022-12-15T16:18:54.267Z,13.52
2022-12-15T16:21:23.121Z,13.53
2022-12-15T16:23:49.698Z,13.52
2022-12-15T16:26:19.581Z,13.52
2022-12-15T16:28:46.191Z,13.51
2022-12-15T16:31:28.431Z,13.51
2022-12-15T16:33:55.348Z,13.51
2022-12-15T16:36:22.203Z,13.51
2022-12-15T16:38:48.764Z,13.49
2022-12-15T16:41:17.328Z,13.50
2022-12-15T16:43:48.295Z,13.49
2022-12-15T16:46:15.508Z,13.50
2022-12-15T16:48:42.697Z,13.50
2022-12-15T16:51:14.607Z,13.50
2022-12-15T16:53:43.086Z,13.49
2022-12-15T16:56:13.360Z,13.51
2022-12-15T16:58:40.039Z,13.52
2022-12-15T17:01:06.624Z,13.53
2022-12-15T17:03:33.481Z,13.52
2022-12-15T17:06:05.966Z,13.54
2022-12-15T17:08:42.071Z,13.55
2022-12-15T17:11:27.838Z,13.55
2022-12-15T17:13:56.940Z,13.56
2022-12-15T17:16:25.174Z,13.57
2022-12-15T17:18:52.058Z,13.57
2022-12-15T17:21:29.746Z,13.56
2022-12-15T17:23:58.527Z,13.57
2022-12-15T17:26:29.746Z,13.53
2022-12-15T17:28:59.294Z,13.55
2022-12-15T17:31:32.909Z,13.54
2022-12-15T17:34:02.649Z,13.53
2022-12-15T17:36:29.392Z,13.53
2022-12-15T17:39:00.833Z,13.54
2022-12-15T17:41:59.312Z,13.53
2022-12-15T17:44:35.519Z,13.51
2022-12-15T17:47:05.320Z,13.51
2022-12-15T17:49:36.105Z,13.50
2022-12-15T17:52:27.994Z,13.51
2022-12-15T17:54:54.890Z,13.51
2022-12-15T17:57:21.445Z,13.49
2022-12-15T17:59:48.128Z,13.51
2022-12-15T18:02:15.416Z,13.50
2022-12-15T18:04:43.076Z,13.52
2022-12-15T18:07:18.432Z,13.51
2022-12-15T18:09:45.196Z,13.51
2022-12-15T18:12:20.214Z,13.52
2022-12-15T18:14:47.046Z,13.51
2022-12-15T18:17:14.125Z,13.53
2022-12-15T18:19:40.758Z,13.51
2022-12-15T18:22:13.279Z,13.53
2022-12-15T18:24:40.021Z,13.53
2022-12-15T18:27:32.856Z,13.54
2022-12-15T18:29:59.493Z,13.55
2022-12-15T18:32:27.082Z,13.54
2022-12-15T18:34:54.149Z,13.55
2022-12-15T18:37:23.056Z,13.54
2022-12-15T18:39:50.582Z,13.54
2022-12-15T18:42:21.481Z,13.53
2022-12-15T18:44:49.812Z,13.54
2022-12-15T18:47:23.690Z,13.53
2022-12-15T18:49:50.671Z,13.53
2022-12-15T18:52:22.324Z,13.53
2022-12-15T18:54:50.102Z,13.51
2022-12-15T18:57:31.346Z,13.50
2022-12-15T19:00:10.032Z,13.52
2022-12-15T19:02:36.683Z,13.51
2022-12-15T19:05:03.558Z,13.52
2022-12-15T19:07:30.306Z,13.51
2022-12-15T19:09:56.956Z,13.52
2022-12-15T19:12:23.638Z,13.53
2022-12-15T19:14:52.591Z,13.53
2022-12-15T19:17:41.445Z,13.53
2022-12-15T19:20:38.082Z,13.54
2022-12-15T19:23:05.036Z,13.53
2022-12-15T19:25:32.180Z,13.55
2022-12-15T19:28:00.252Z,13.54
2022-12-15T19:30:36.962Z,13.54
2022-12-15T19:33:07.219Z,13.55
2022-12-15T19:35:33.824Z,13.56
2022-12-15T19:38:01.938Z,13.54
2022-12-15T19:40:31.075Z,13.56
2022-12-15T19:42:58.912Z,13.54
2022-12-15T19:45:28.264Z,13.55
2022-12-15T19:47:55.389Z,13.55
2022-12-15T19:50:28.005Z,13.54
2022-12-15T19:52:58.143Z,13.55
2022-12-15T19:55:28.215Z,13.53
2022-12-15T19:57:54.848Z,13.52
2022-12-15T20:00:22.584Z,13.53
2022-12-15T20:02:51.350Z,13.53
2022-12-15T20:05:19.383Z,13.52
2022-12-15T20:07:46.477Z,13.51
2022-12-15T20:10:24.428Z,13.52
2022-12-15T20:12:53.069Z,13.51
2022-12-15T20:15:23.001Z,13.50
2022-12-15T20:17:55.414Z,13.52
2022-12-15T20:20:23.175Z,13.51
2022-12-15T20:22:54.077Z,13.51
2022-12-15T20:25:25.711Z,13.50
2022-12-15T20:27:52.295Z,13.49
2022-12-15T20:30:19.735Z,13.50
2022-12-15T20:32:46.318Z,13.48
2022-12-15T20:35:15.206Z,13.51
2022-12-15T20:37:43.738Z,13.49
2022-12-15T20:40:22.387Z,13.50
2022-12-15T20:42:49.695Z,13.49
2022-12-15T20:45:18.874Z,13.49
2022-12-15T20:47:47.341Z,13.48
2022-12-15T20:50:26.836Z,13.50
2022-12-15T20:52:55.055Z,13.50
2022-12-15T20:55:21.771Z,13.49
2022-12-15T20:57:48.783Z,13.49
2022-12-15T21:00:15.789Z,13.49
2022-12-15T21:02:43.320Z,13.48
2022-12-15T21:05:21.687Z,13.47
2022-12-15T21:07:48.846Z,13.50
2022-12-15T21:10:16.823Z,13.48
2022-12-15T21:12:45.972Z,13.48
2022-12-15T21:15:22.793Z,13.48
2022-12-15T21:17:57.905Z,13.50
2022-12-15T21:20:39.651Z,13.50
2022-12-15T21:23:10.045Z,13.52
2022-12-15T21:25:36.849Z,13.50
2022-12-15T21:28:11.421Z,13.51
2022-12-15T21:30:39.022Z,13.51
2022-12-15T21:33:06.192Z,13.51
2022-12-15T21:35:32.762Z,13.51
2022-12-15T21:37:59.375Z,13.52
2022-12-15T21:40:28.637Z,13.49
2022-12-15T21:42:55.692Z,13.52
2022-12-15T21:45:24.586Z,13.52
2022-12-15T21:48:10.445Z,13.51
2022-12-15T21:50:38.079Z,13.52
2022-12-15T21:53:06.856Z,13.52
2022-12-15T21:55:33.711Z,13.50
2022-12-15T21:58:00.253Z,13.51
2022-12-15T22:00:26.848Z,13.51
2022-12-15T22:02:53.863Z,13.51
2022-12-15T22:05:29.361Z,13.51
2022-12-15T22:07:57.695Z,13.51
2022-12-15T22:10:25.038Z,13.49
2022-12-15T22:12:59.023Z,13.50
2022-12-15T22:15:26.278Z,13.50
2022-12-15T22:17:53.104Z,13.49
2022-12-15T22:20:21.821Z,13.51
2022-12-15T22:22:48.788Z,13.49
2022-12-15T22:25:20.981Z,13.50
2022-12-15T22:27:47.858Z,13.49
2022-12-15T22:30:15.816Z,13.48
2022-12-15T22:32:42.443Z,13.48
2022-12-15T22:35:16.946Z,13.50
2022-12-15T22:37:44.803Z,13.49
2022-12-15T22:40:12.574Z,13.50
2022-12-15T22:42:41.569Z,13.50
2022-12-15T22:45:15.381Z,13.50
2022-12-15T22:47:42.194Z,13.48
2022-12-15T22:50:15.423Z,13.51
2022-12-15T22:52:42.022Z,13.49
2022-12-15T22:55:14.829Z,13.50
2022-12-15T22:57:44.004Z,13.49
2022-12-15T23:00:13.792Z,13.50
2022-12-15T23:02:43.467Z,13.50
2022-12-15T23:05:12.742Z,13.51
2022-12-15T23:07:39.312Z,13.49
2022-12-15T23:10:25.053Z,13.48
2022-12-15T23:12:54.433Z,13.49
2022-12-15T23:15:41.291Z,13.49
2022-12-15T23:18:08.318Z,13.50
2022-12-15T23:20:34.878Z,13.49
2022-12-15T23:23:01.706Z,13.49
2022-12-15T23:25:28.317Z,13.48
2022-12-15T23:27:54.954Z,13.50
2022-12-15T23:30:21.761Z,13.49
2022-12-15T23:32:48.581Z,13.49
2022-12-15T23:35:15.207Z,13.49
2022-12-15T23:37:41.809Z,13.49
2022-12-15T23:40:08.794Z,13.50
2022-12-15T23:42:35.519Z,13.49
2022-12-15T23:45:02.256Z,13.50
2022-12-15T23:47:29.067Z,13.51
2022-12-15T23:49:55.617Z,13.50
2022-12-15T23:52:22.135Z,13.51
2022-12-15T23:54:48.672Z,13.51
2022-12-15T23:57:15.256Z,13.51
2022-12-15T23:59:41.840Z,13.50
